Time;durP1;ratioP1;P1;durP2;ratioP2;P2;SDS_P1;SDS_P2;PMS_P1;PMS_P2;Temp;Humidity;BMP_temperature;BMP_pressure;BME280_temperature;BME280_humidity;BME280_pressure;Samples;Min_cycle;Max_cycle;Signal;HPM_P1;HPM_P2
2021/08/20 00:00:39;;;;;;;26.15;22.20;;;;;;;18.51;70.42;99707.47;6044395;23;20031;-79
2021/08/20 00:03:09;;;;;;;27.88;22.42;;;;;;;18.50;70.43;99705.78;6044060;23;20027;-79
2021/08/20 00:05:36;;;;;;;28.48;22.95;;;;;;;18.52;70.27;99705.63;6044072;23;20098;-80
2021/08/20 00:08:03;;;;;;;29.60;23.08;;;;;;;18.51;69.95;99709.28;6044468;23;20031;-79
2021/08/20 00:10:30;;;;;;;26.02;22.38;;;;;;;18.49;70.01;99701.44;6044711;23;20132;-79
2021/08/20 00:13:15;;;;;;;25.50;21.27;;;;;;;18.44;70.32;99701.03;6044317;23;20398;-80
2021/08/20 00:15:46;;;;;;;25.25;21.60;;;;;;;18.45;70.22;99705.34;6043877;23;20027;-79
2021/08/20 00:18:13;;;;;;;23.23;20.00;;;;;;;18.45;69.59;99702.69;6044056;23;20037;-79
2021/08/20 00:20:40;;;;;;;25.70;22.90;;;;;;;18.42;69.72;99702.97;6044767;23;20029;-79
2021/08/20 00:23:12;;;;;;;26.05;22.10;;;;;;;18.39;69.79;99703.28;6044411;23;20023;-79
2021/08/20 00:25:38;;;;;;;25.55;22.80;;;;;;;18.39;69.70;99703.28;6043708;23;20350;-79
2021/08/20 00:28:05;;;;;;;26.48;21.17;;;;;;;18.35;69.81;99706.19;6043998;23;20031;-79
2021/08/20 00:30:32;;;;;;;26.33;21.77;;;;;;;18.34;69.78;99706.34;6068978;23;20027;-79
2021/08/20 00:32:59;;;;;;;27.35;21.08;;;;;;;18.32;69.98;99709.13;6043730;23;20069;-79
2021/08/20 00:35:25;;;;;;;29.17;22.13;;;;;;;18.29;69.81;99714.75;6043719;23;20346;-79
2021/08/20 00:37:53;;;;;;;24.75;20.48;;;;;;;18.27;69.82;99708.72;6043549;23;20022;-79
2021/08/20 00:40:20;;;;;;;26.10;21.83;;;;;;;18.25;69.80;99705.38;6043811;23;20037;-80
2021/08/20 00:42:48;;;;;;;24.00;20.15;;;;;;;18.22;69.75;99703.81;6043991;23;20451;-80
2021/08/20 00:45:16;;;;;;;27.92;21.33;;;;;;;18.21;69.62;99698.63;6042882;23;20029;-80
2021/08/20 00:47:42;;;;;;;26.13;21.08;;;;;;;18.20;69.94;99710.25;6043724;23;20026;-80
2021/08/20 00:50:09;;;;;;;26.48;21.50;;;;;;;18.19;70.03;99713.91;6043670;23;20030;-80
2021/08/20 00:52:37;;;;;;;24.13;20.65;;;;;;;18.17;69.67;99707.88;6043984;23;20029;-79
2021/08/20 00:55:07;;;;;;;27.38;20.10;;;;;;;18.16;69.74;99699.03;6042643;23;20023;-80
2021/08/20 00:57:34;;;;;;;22.08;18.88;;;;;;;18.17;70.04;99705.22;6043652;23;20022;-79
2021/08/20 01:00:05;;;;;;;26.00;20.25;;;;;;;18.13;69.94;99701.97;6043515;23;20022;-79
2021/08/20 01:02:32;;;;;;;22.50;19.77;;;;;;;18.14;69.74;99703.66;6043552;23;20105;-80
2021/08/20 01:04:59;;;;;;;21.92;18.63;;;;;;;18.14;69.68;99697.50;6043036;23;20037;-80
2021/08/20 01:07:27;;;;;;;21.20;19.08;;;;;;;18.13;69.67;99704.63;6043513;23;20037;-80
2021/08/20 01:09:54;;;;;;;23.15;18.80;;;;;;;18.12;69.92;99700.28;6043959;23;20102;-80
2021/08/20 01:12:21;;;;;;;23.10;18.90;;;;;;;18.12;69.87;99699.47;6044622;23;20427;-78
2021/08/20 01:14:50;;;;;;;28.00;19.80;;;;;;;18.10;69.57;99704.94;6042781;23;20019;-79
2021/08/20 01:17:17;;;;;;;23.55;18.63;;;;;;;18.11;69.78;99703.94;6043515;23;20102;-79
2021/08/20 01:19:47;;;;;;;20.73;18.48;;;;;;;18.08;69.70;99713.06;6043288;23;20023;-79
2021/08/20 01:22:14;;;;;;;20.48;16.95;;;;;;;18.08;69.82;99709.53;6043431;23;20097;-78
2021/08/20 01:24:44;;;;;;;20.17;17.27;;;;;;;18.07;69.69;99700.69;6042989;23;20347;-79
2021/08/20 01:27:11;;;;;;;19.20;17.13;;;;;;;18.08;69.58;99702.41;6044211;23;20029;-80
2021/08/20 01:29:38;;;;;;;23.98;17.05;;;;;;;18.08;69.67;99698.88;6043487;23;20037;-80
2021/08/20 01:32:05;;;;;;;18.67;15.30;;;;;;;18.06;69.51;99696.31;6068518;23;20023;-80
2021/08/20 01:34:50;;;;;;;19.25;16.10;;;;;;;18.02;69.50;99692.25;6068108;23;20480;-80
2021/08/20 01:37:24;;;;;;;24.63;16.60;;;;;;;18.03;69.11;99693.94;6043372;23;20029;-80
2021/08/20 01:39:51;;;;;;;20.42;15.25;;;;;;;18.04;69.21;99684.13;6043386;23;20037;-80
2021/08/20 01:42:19;;;;;;;20.67;15.90;;;;;;;18.02;69.43;99684.25;6043404;23;20023;-80
2021/08/20 01:44:49;;;;;;;20.17;15.18;;;;;;;18.02;69.40;99689.59;6042991;23;20027;-79
2021/08/20 01:47:15;;;;;;;15.63;13.75;;;;;;;18.01;69.04;99685.25;6038330;23;20023;-80
2021/08/20 01:49:42;;;;;;;22.33;15.15;;;;;;;17.99;69.31;99687.22;6038454;23;20027;-80
2021/08/20 01:52:09;;;;;;;19.38;15.20;;;;;;;17.98;68.98;99690.84;6038356;23;20023;-80
2021/08/20 01:54:38;;;;;;;20.17;14.40;;;;;;;17.96;69.10;99692.81;6037713;23;20039;-80
2021/08/20 01:57:05;;;;;;;18.17;13.80;;;;;;;17.96;69.18;99690.16;6038414;23;20023;-80
2021/08/20 01:59:32;;;;;;;17.55;13.85;;;;;;;17.94;69.05;99684.13;6038771;23;20368;-80
2021/08/20 02:01:58;;;;;;;18.23;14.57;;;;;;;17.91;68.78;99679.88;6038566;23;20347;-80
2021/08/20 02:04:26;;;;;;;18.95;14.50;;;;;;;17.90;68.76;99688.88;6037561;23;20019;-80
2021/08/20 02:06:56;;;;;;;23.08;13.55;;;;;;;17.88;69.06;99695.31;6038785;23;20059;-80
2021/08/20 02:09:22;;;;;;;17.67;13.73;;;;;;;17.88;69.02;99692.66;6040438;23;20375;-80
2021/08/20 02:11:50;;;;;;;20.52;13.57;;;;;;;17.85;68.62;99696.44;6041984;23;20362;-79
2021/08/20 02:14:18;;;;;;;18.20;13.43;;;;;;;17.84;68.75;99692.91;6039562;23;20019;-78
2021/08/20 02:17:11;;;;;;;14.07;12.60;;;;;;;17.79;69.00;99691.66;6040067;23;20023;-80
2021/08/20 02:19:38;;;;;;;;;;;;;;;17.82;69.05;99691.38;6041456;23;20094;-80
2021/08/20 02:22:05;;;;;;;14.07;11.35;;;;;;;17.85;68.87;99688.44;6040363;23;19918;-80
2021/08/20 02:24:31;;;;;;;20.48;14.57;;;;;;;17.83;68.80;99691.22;6038881;23;20023;-79
2021/08/20 02:26:58;;;;;;;17.85;13.80;;;;;;;17.82;68.85;99688.69;6039275;23;20105;-80
2021/08/20 02:29:25;;;;;;;18.10;12.95;;;;;;;17.79;68.80;99692.47;6040305;23;20038;-80
2021/08/20 02:31:55;;;;;;;15.00;12.57;;;;;;;17.77;68.84;99689.13;6042159;23;20035;-80
2021/08/20 02:34:21;;;;;;;16.00;12.13;;;;;;;17.75;68.63;99680.41;6039648;23;20023;-80
2021/08/20 02:36:49;;;;;;;15.40;12.18;;;;;;;17.74;68.73;99689.38;6040009;23;20023;-80
2021/08/20 02:39:16;;;;;;;18.13;13.43;;;;;;;17.72;68.72;99678.06;6040352;23;20029;-79
2021/08/20 02:41:43;;;;;;;19.80;14.25;;;;;;;17.70;68.84;99682.66;6040009;23;20031;-78
2021/08/20 02:44:09;;;;;;;16.85;13.40;;;;;;;17.69;68.69;99680.97;6039182;23;20034;-79
2021/08/20 02:46:38;;;;;;;19.33;13.10;;;;;;;17.69;68.79;99683.63;6039875;23;20034;-78
2021/08/20 02:49:05;;;;;;;16.90;13.77;;;;;;;17.68;68.97;99688.09;6040303;23;20451;-80
2021/08/20 02:51:31;;;;;;;21.05;14.82;;;;;;;17.67;68.82;99686.44;6040285;23;20455;-80
2021/08/20 02:53:58;;;;;;;18.58;14.32;;;;;;;17.67;68.80;99685.56;6039189;23;20153;-80
2021/08/20 02:56:25;;;;;;;16.33;14.20;;;;;;;17.66;68.87;99686.56;6040011;23;20535;-80
2021/08/20 02:58:52;;;;;;;16.33;13.40;;;;;;;17.65;68.67;99696.34;6040215;23;20041;-79
2021/08/20 03:01:18;;;;;;;19.63;14.82;;;;;;;17.64;68.69;99693.84;6040138;23;20045;-79
2021/08/20 03:03:48;;;;;;;20.77;14.75;;;;;;;17.64;68.52;99693.84;6039295;23;20027;-79
2021/08/20 03:06:22;;;;;;;19.15;14.20;;;;;;;17.58;68.52;99693.41;6041188;23;20023;-79
2021/08/20 03:08:48;;;;;;;18.63;14.50;;;;;;;17.61;68.66;99691.47;6040055;23;20038;-79
2021/08/20 03:11:15;;;;;;;18.30;14.10;;;;;;;17.58;68.76;99685.41;6040097;23;20027;-79
2021/08/20 03:13:58;;;;;;;25.92;14.70;;;;;;;17.54;69.02;99685.84;6040428;23;20027;-79
2021/08/20 03:16:25;;;;;;;17.23;14.27;;;;;;;17.57;69.13;99681.06;6040027;23;20471;-79
2021/08/20 03:18:51;;;;;;;23.95;14.80;;;;;;;17.57;69.05;99689.06;6039833;23;20110;-79
2021/08/20 03:21:19;;;;;;;21.67;15.95;;;;;;;17.57;68.89;99686.41;6040015;23;20089;-79
2021/08/20 03:23:46;;;;;;;18.90;14.93;;;;;;;17.58;68.86;99684.59;6038579;23;20023;-79
2021/08/20 03:26:13;;;;;;;19.58;15.07;;;;;;;17.57;69.08;99683.72;6039989;23;20035;-79
2021/08/20 03:28:41;;;;;;;19.85;15.65;;;;;;;17.57;68.63;99690.91;6039560;23;20023;-79
2021/08/20 03:31:08;;;;;;;19.33;15.57;;;;;;;17.57;68.84;99686.41;6040132;23;20027;-79
2021/08/20 03:33:39;;;;;;;20.63;15.68;;;;;;;17.56;68.80;99690.03;6039619;23;20396;-79
2021/08/20 03:36:05;;;;;;;23.60;15.40;;;;;;;17.58;68.83;99696.06;6039476;23;20324;-79
2021/08/20 03:38:32;;;;;;;19.67;15.77;;;;;;;17.58;68.97;99697.91;6039913;23;20098;-79
2021/08/20 03:41:02;;;;;;;21.35;15.23;;;;;;;17.57;69.07;99701.53;6039423;23;20037;-79
2021/08/20 03:43:28;;;;;;;20.90;16.23;;;;;;;17.58;68.98;99700.56;6039099;23;20105;-79
2021/08/20 03:45:55;;;;;;;19.80;15.98;;;;;;;17.57;68.64;99705.03;6042096;23;20019;-78
2021/08/20 03:48:22;;;;;;;24.92;16.58;;;;;;;17.57;68.82;99706.88;6044664;23;20383;-79
2021/08/20 03:50:52;;;;;;;22.38;16.30;;;;;;;17.54;68.93;99705.28;6044135;23;20022;-78
2021/08/20 03:53:18;;;;;;;25.85;17.02;;;;;;;17.56;68.90;99702.50;6044223;23;20027;-79
2021/08/20 03:55:45;;;;;;;20.05;16.40;;;;;;;17.54;68.71;99702.63;6043656;23;20037;-78
2021/08/20 03:58:13;;;;;;;20.80;16.52;;;;;;;17.53;68.66;99700.13;6044087;23;20023;-78
2021/08/20 04:00:51;;;;;;;23.85;16.73;;;;;;;17.50;68.84;99706.56;6044411;23;20106;-78
2021/08/20 04:03:23;;;;;;;22.20;16.88;;;;;;;17.47;69.08;99717.47;6044519;23;20027;-79
2021/08/20 04:05:50;;;;;;;21.30;16.75;;;;;;;17.46;68.80;99707.81;6043537;23;20026;-78
2021/08/20 04:08:17;;;;;;;23.38;17.02;;;;;;;17.45;68.80;99711.41;6044070;23;20029;-78
2021/08/20 04:10:45;;;;;;;22.77;18.23;;;;;;;17.40;68.94;99714.50;6044304;23;20037;-78
2021/08/20 04:13:13;;;;;;;24.15;18.08;;;;;;;17.38;68.70;99710.28;6044461;23;20346;-78
2021/08/20 04:15:44;;;;;;;26.48;18.75;;;;;;;17.34;68.78;99711.53;6068896;23;20019;-78
2021/08/20 04:18:10;;;;;;;27.52;19.92;;;;;;;17.32;68.68;99717.78;6044146;23;20030;-79
2021/08/20 04:20:38;;;;;;;25.30;20.05;;;;;;;17.28;68.94;99721.72;6043809;23;20029;-79
2021/08/20 04:23:05;;;;;;;25.55;18.80;;;;;;;17.25;69.02;99726.44;6043957;23;20022;-79
2021/08/20 04:25:33;;;;;;;27.55;21.33;;;;;;;17.22;68.80;99732.88;6043683;23;20113;-80
2021/08/20 04:28:00;;;;;;;29.77;20.45;;;;;;;17.18;69.15;99737.63;6043823;23;20022;-80
2021/08/20 04:30:29;;;;;;;25.90;22.08;;;;;;;17.18;69.11;99736.75;6043773;23;20457;-80
2021/08/20 04:32:58;;;;;;;28.52;20.63;;;;;;;17.15;69.57;99737.03;6043909;23;20029;-80
2021/08/20 04:35:26;;;;;;;28.15;21.25;;;;;;;17.13;69.54;99731.00;6043473;23;20035;-79
2021/08/20 04:37:53;;;;;;;26.65;21.77;;;;;;;17.13;69.47;99741.66;6043681;23;20033;-79
2021/08/20 04:40:20;;;;;;;28.60;20.98;;;;;;;17.12;69.61;99747.94;6043691;23;20030;-79
2021/08/20 04:42:47;;;;;;;25.88;21.10;;;;;;;17.11;69.50;99744.44;6044031;23;20102;-79
2021/08/20 04:45:16;;;;;;;28.60;21.15;;;;;;;17.08;69.41;99744.69;6043307;23;20023;-79
2021/08/20 04:47:43;;;;;;;29.75;20.95;;;;;;;17.07;69.46;99740.34;6038786;23;20348;-79
2021/08/20 04:50:10;;;;;;;24.50;20.73;;;;;;;17.06;69.61;99739.53;6038717;23;20038;-80
2021/08/20 04:52:37;;;;;;;26.65;19.85;;;;;;;17.04;69.39;99744.09;6039110;23;20053;-80
2021/08/20 04:55:06;;;;;;;30.70;21.65;;;;;;;17.02;69.43;99754.00;6038798;23;20027;-79
2021/08/20 04:57:33;;;;;;;28.63;20.90;;;;;;;17.00;69.49;99747.97;6038791;23;20031;-79
2021/08/20 04:59:59;;;;;;;27.17;21.85;;;;;;;16.99;69.58;99746.28;6040022;23;20042;-79
2021/08/20 05:02:28;;;;;;;32.00;20.55;;;;;;;16.98;69.67;99743.75;6039079;23;20510;-79
2021/08/20 05:04:55;;;;;;;26.70;21.65;;;;;;;16.97;69.60;99745.56;6039205;23;20451;-79
2021/08/20 05:07:22;;;;;;;27.80;20.63;;;;;;;16.95;69.64;99747.53;6038594;23;20030;-79
2021/08/20 05:09:50;;;;;;;31.60;21.90;;;;;;;16.93;69.84;99754.75;6038890;23;20515;-79
2021/08/20 05:12:16;;;;;;;29.13;21.67;;;;;;;16.92;69.84;99753.09;6038615;23;20106;-79
2021/08/20 05:14:43;;;;;;;26.33;21.48;;;;;;;16.92;69.90;99756.59;6038771;23;20057;-80
2021/08/20 05:17:11;;;;;;;27.25;21.75;;;;;;;16.90;70.14;99763.03;6038939;23;20023;-80
2021/08/20 05:19:37;;;;;;;27.48;20.40;;;;;;;16.92;69.90;99764.56;6039241;23;20032;-80
2021/08/20 05:22:07;;;;;;;29.23;21.70;;;;;;;16.92;70.40;99766.38;6040125;23;20078;-81
2021/08/20 05:24:34;;;;;;;27.77;20.45;;;;;;;16.94;70.13;99762.63;6038386;23;20023;-81
2021/08/20 05:27:00;;;;;;;26.52;19.90;;;;;;;16.96;70.20;99773.13;6038517;23;20038;-77
2021/08/20 05:29:27;;;;;;;24.13;19.17;;;;;;;16.96;70.24;99765.16;6038406;23;20023;-77
2021/08/20 05:31:54;;;;;;;27.95;19.75;;;;;;;16.98;70.07;99765.88;6038850;23;20347;-81
2021/08/20 05:34:21;;;;;;;31.88;19.60;;;;;;;16.99;70.22;99774.69;6038182;23;20054;-81
2021/08/20 05:36:48;;;;;;;24.73;18.77;;;;;;;17.01;70.04;99767.44;6039115;23;20037;-78
2021/08/20 05:39:18;;;;;;;25.02;19.55;;;;;;;17.02;70.33;99767.31;6038612;23;20030;-78
2021/08/20 05:41:44;;;;;;;23.08;18.05;;;;;;;17.04;70.02;99760.06;6038973;23;20117;-78
2021/08/20 05:44:12;;;;;;;23.67;17.58;;;;;;;17.05;70.16;99752.94;6037964;23;20451;-78
2021/08/20 05:46:40;;;;;;;30.92;19.10;;;;;;;17.08;70.31;99765.13;6038352;23;20033;-78
2021/08/20 05:49:07;;;;;;;25.98;19.02;;;;;;;17.09;70.09;99764.16;6038446;23;20111;-78
2021/08/20 05:51:34;;;;;;;23.35;18.45;;;;;;;17.12;70.40;99766.56;6038392;23;20102;-78
2021/08/20 05:54:01;;;;;;;28.15;19.50;;;;;;;17.14;70.49;99767.25;6038022;23;20035;-78
2021/08/20 05:56:28;;;;;;;26.20;18.27;;;;;;;17.18;70.56;99763.38;6038880;23;20037;-78
2021/08/20 05:58:54;;;;;;;26.73;18.92;;;;;;;17.24;71.03;99764.66;6038810;23;20031;-78
2021/08/20 06:01:21;;;;;;;25.90;17.90;;;;;;;17.29;71.20;99776.59;6038739;23;20030;-78
2021/08/20 06:03:48;;;;;;;25.30;18.27;;;;;;;17.36;71.13;99771.59;6037327;23;20083;-78
2021/08/20 06:06:15;;;;;;;26.88;20.35;;;;;;;17.43;70.80;99769.25;6038949;23;20027;-78
2021/08/20 06:08:43;;;;;;;28.20;19.33;;;;;;;17.48;70.50;99769.69;6038199;23;20031;-78
2021/08/20 06:11:10;;;;;;;25.10;18.00;;;;;;;17.52;70.26;99773.78;6038332;23;20031;-78
2021/08/20 06:13:36;;;;;;;25.20;19.40;;;;;;;17.54;70.03;99768.34;6038073;23;20031;-79
2021/08/20 06:16:03;;;;;;;26.00;19.23;;;;;;;17.57;70.10;99773.41;6037462;23;20029;-78
2021/08/20 06:18:30;;;;;;;20.98;18.42;;;;;;;17.58;70.06;99777.75;6038372;23;20063;-80
2021/08/20 06:20:57;;;;;;;25.23;19.20;;;;;;;17.60;70.22;99773.13;6038593;23;20031;-80
2021/08/20 06:23:28;;;;;;;25.48;20.02;;;;;;;17.63;70.72;99774.66;6038503;23;20023;-80
2021/08/20 06:25:54;;;;;;;24.67;18.83;;;;;;;17.70;70.55;99778.50;6037195;23;20029;-80
2021/08/20 06:28:21;;;;;;;27.10;19.60;;;;;;;17.76;70.51;99787.75;6038265;23;20029;-81
2021/08/20 06:30:49;;;;;;;26.52;20.23;;;;;;;17.81;70.32;99786.41;6038268;23;20038;-81
2021/08/20 06:33:16;;;;;;;28.13;20.00;;;;;;;17.84;69.87;99780.78;6038489;23;20329;-80
2021/08/20 06:35:43;;;;;;;27.23;18.55;;;;;;;17.87;70.03;99779.66;6037778;23;20337;-80
2021/08/20 06:38:09;;;;;;;25.63;19.27;;;;;;;17.91;70.31;99780.25;6040108;23;20031;-79
2021/08/20 06:40:36;;;;;;;29.58;19.98;;;;;;;17.93;70.29;99788.94;6038544;23;20075;-80
2021/08/20 06:43:03;;;;;;;27.98;20.70;;;;;;;17.97;70.14;99790.34;6038122;23;20027;-79
2021/08/20 06:45:32;;;;;;;26.90;20.52;;;;;;;18.01;70.29;99794.44;6038733;23;20023;-80
2021/08/20 06:47:59;;;;;;;27.63;18.83;;;;;;;18.05;70.25;99785.19;6038138;23;20106;-80
2021/08/20 06:50:26;;;;;;;26.67;18.83;;;;;;;18.11;70.36;99786.50;6038419;23;20511;-79
2021/08/20 06:52:53;;;;;;;29.35;18.95;;;;;;;18.17;70.34;99785.13;6038802;23;20362;-79
2021/08/20 06:55:20;;;;;;;23.77;18.38;;;;;;;18.24;69.94;99796.91;6041010;23;20030;-78
2021/08/20 06:57:47;;;;;;;27.52;18.55;;;;;;;18.30;70.30;99792.88;6042054;23;20444;-79
2021/08/20 07:00:14;;;;;;;25.92;18.75;;;;;;;18.34;70.16;99792.47;6040755;23;20398;-79
2021/08/20 07:02:43;;;;;;;23.23;18.48;;;;;;;18.38;69.72;99801.00;6040167;23;20376;-79
2021/08/20 07:05:13;;;;;;;26.90;18.38;;;;;;;18.41;69.32;99805.22;6039550;23;20054;-79
2021/08/20 07:07:40;;;;;;;28.15;20.13;;;;;;;18.46;69.50;99809.16;6040440;23;20458;-79
2021/08/20 07:10:09;;;;;;;27.73;19.27;;;;;;;18.51;69.94;99807.91;6041277;23;20023;-79
2021/08/20 07:12:43;;;;;;;28.95;18.83;;;;;;;18.53;69.57;99808.59;6039734;23;20031;-79
2021/08/20 07:15:12;;;;;;;23.17;18.42;;;;;;;18.59;69.63;99813.41;6039315;23;20033;-79
2021/08/20 07:17:40;;;;;;;26.65;18.30;;;;;;;18.62;69.59;99816.63;6040355;23;20023;-79
2021/08/20 07:20:09;;;;;;;25.38;18.58;;;;;;;18.67;69.91;99818.03;6040117;23;20099;-79
2021/08/20 07:22:42;;;;;;;25.02;17.38;;;;;;;18.72;69.79;99811.31;6039335;23;20067;-79
2021/08/20 07:25:09;;;;;;;26.65;17.85;;;;;;;18.81;70.17;99814.13;6038869;23;20027;-79
2021/08/20 07:27:39;;;;;;;28.70;18.40;;;;;;;18.86;69.81;99820.72;6041370;23;20030;-80
2021/08/20 07:30:07;;;;;;;25.90;18.10;;;;;;;18.93;69.74;99817.47;6039961;23;20023;-80
2021/08/20 07:32:34;;;;;;;25.63;17.88;;;;;;;18.99;69.43;99815.09;6039793;23;20070;-81
2021/08/20 07:35:01;;;;;;;27.60;18.63;;;;;;;19.04;69.13;99809.34;6038960;23;20019;-81
2021/08/20 07:37:27;;;;;;;26.15;17.40;;;;;;;19.09;69.06;99812.47;6039521;23;20030;-81
2021/08/20 07:39:54;;;;;;;23.20;17.23;;;;;;;19.12;68.97;99812.19;6039433;23;20110;-80
2021/08/20 07:42:21;;;;;;;23.58;16.02;;;;;;;19.19;69.16;99808.94;6039833;23;20029;-80
2021/08/20 07:44:50;;;;;;;23.52;16.13;;;;;;;19.26;69.36;99812.72;6040099;23;20023;-80
2021/08/20 07:47:17;;;;;;;22.52;15.65;;;;;;;19.33;69.16;99816.47;6039112;23;20033;-81
2021/08/20 07:49:47;;;;;;;25.98;16.90;;;;;;;19.39;68.81;99818.59;6040316;23;20455;-79
2021/08/20 07:52:14;;;;;;;22.33;16.33;;;;;;;19.49;68.55;99817.72;6039764;23;20400;-79
2021/08/20 07:54:40;;;;;;;24.17;16.55;;;;;;;19.53;68.49;99819.13;6039012;23;20469;-80
2021/08/20 07:57:07;;;;;;;22.15;16.38;;;;;;;19.59;68.45;99829.22;6040181;23;20027;-80
2021/08/20 07:59:36;;;;;;;23.30;16.75;;;;;;;19.64;68.64;99837.66;6039291;23;20031;-80
2021/08/20 08:02:03;;;;;;;28.45;16.52;;;;;;;19.72;68.34;99828.91;6039585;23;20027;-80
2021/08/20 08:04:30;;;;;;;23.90;17.15;;;;;;;19.79;68.42;99830.03;6040425;23;20027;-80
2021/08/20 08:06:57;;;;;;;21.55;15.77;;;;;;;19.85;68.02;99825.91;6039784;23;20038;-80
2021/08/20 08:09:24;;;;;;;24.65;16.75;;;;;;;19.92;68.30;99836.84;6039451;23;20094;-80
2021/08/20 08:11:52;;;;;;;25.15;16.15;;;;;;;19.96;67.84;99840.06;6039565;23;20038;-80
2021/08/20 08:14:19;;;;;;;22.48;17.48;;;;;;;20.03;68.45;99838.50;6038901;23;20344;-80
2021/08/20 08:16:46;;;;;;;19.17;15.05;;;;;;;20.11;68.43;99841.28;6039551;23;20110;-80
2021/08/20 08:19:13;;;;;;;25.80;17.88;;;;;;;20.22;68.85;99842.94;6039146;23;20111;-80
2021/08/20 08:21:39;;;;;;;22.90;17.45;;;;;;;20.33;68.44;99847.22;6039343;23;20023;-80
2021/08/20 08:24:06;;;;;;;23.10;17.83;;;;;;;20.45;67.77;99850.56;6038897;23;20098;-80
2021/08/20 08:26:33;;;;;;;24.23;17.40;;;;;;;20.57;67.70;99848.50;6038719;23;20028;-80
2021/08/20 08:29:00;;;;;;;25.67;17.25;;;;;;;20.65;67.76;99843.25;6040641;23;20066;-80
2021/08/20 08:31:26;;;;;;;21.33;16.17;;;;;;;20.74;67.65;99851.38;6039040;23;20106;-80
2021/08/20 08:33:53;;;;;;;24.17;17.30;;;;;;;20.83;67.47;99848.59;6038382;23;20035;-80
2021/08/20 08:36:21;;;;;;;20.92;16.40;;;;;;;20.93;67.87;99851.22;6038740;23;20027;-80
2021/08/20 08:38:48;;;;;;;23.35;17.02;;;;;;;21.04;67.41;99852.00;6039107;23;20102;-80
2021/08/20 08:41:17;;;;;;;21.70;16.17;;;;;;;21.16;66.62;99857.97;6038933;23;20032;-80
2021/08/20 08:43:44;;;;;;;26.33;16.40;;;;;;;21.26;66.30;99865.91;6038520;23;20023;-80
2021/08/20 08:46:19;;;;;;;21.40;15.98;;;;;;;21.29;64.89;99878.97;6039516;23;20078;-80
2021/08/20 08:48:45;;;;;;;20.90;15.73;;;;;;;21.31;65.02;99866.28;6039880;23;20019;-80
2021/08/20 08:51:12;;;;;;;21.13;16.00;;;;;;;21.28;64.81;99864.75;6043603;23;20037;-80
2021/08/20 08:53:39;;;;;;;22.75;16.08;;;;;;;21.23;65.19;99872.38;6069037;23;20027;-80
2021/08/20 08:56:09;;;;;;;21.67;16.67;;;;;;;21.18;65.03;99872.88;6044005;23;20027;-81
2021/08/20 08:58:37;;;;;;;20.75;16.15;;;;;;;21.14;65.00;99871.50;6043994;23;20342;-81
2021/08/20 09:01:45;;;;;;;21.20;15.15;;;;;;;21.04;65.27;99874.25;6044073;23;20455;-81
2021/08/20 09:04:14;;;;;;;21.60;15.55;;;;;;;21.05;64.58;99877.78;5902358;24;20112;-81
2021/08/20 09:07:07;;;;;;;21.10;16.15;;;;;;;20.93;65.05;99875.31;5903312;24;20029;-81
2021/08/20 09:09:35;;;;;;;21.23;16.17;;;;;;;20.96;65.57;99874.16;5993939;23;20113;-81
2021/08/20 09:12:26;;;;;;;25.65;15.80;;;;;;;20.89;65.93;99873.94;6043585;23;20037;-81
2021/08/20 09:14:57;;;;;;;20.60;15.30;;;;;;;20.95;66.09;99872.50;6043205;23;20387;-81
2021/08/20 09:17:33;;;;;;;22.83;15.95;;;;;;;20.98;66.22;99877.53;6043430;23;20065;-81
2021/08/20 09:20:16;;;;;;;23.50;15.63;;;;;;;21.02;66.15;99872.72;6043746;23;20506;-81
2021/08/20 09:22:47;;;;;;;;;;;;;;;21.12;66.59;99867.28;6043727;23;20037;-81
2021/08/20 09:25:40;;;;;;;17.33;12.63;;;;;;;21.20;65.87;99870.88;6043447;23;19918;-80
2021/08/20 09:28:17;;;;;;;19.27;14.67;;;;;;;21.28;65.41;99872.78;5902866;24;20100;-80
2021/08/20 09:31:11;;;;;;;21.45;15.00;;;;;;;21.30;65.35;99875.31;5902834;24;20503;-80
2021/08/20 09:33:48;;;;;;;22.75;15.15;;;;;;;21.37;65.28;99873.69;5902923;24;20029;-80
2021/08/20 09:36:20;;;;;;;19.83;14.93;;;;;;;21.43;65.91;99872.22;5902719;24;20521;-80
2021/08/20 09:38:54;;;;;;;17.23;13.68;;;;;;;21.52;65.67;99873.13;5902817;24;20048;-80
2021/08/20 09:41:33;;;;;;;16.77;12.10;;;;;;;21.57;65.41;99870.81;5902788;24;20104;-79
2021/08/20 09:44:06;;;;;;;18.80;13.75;;;;;;;21.67;64.93;99876.06;5901942;24;20052;-79
2021/08/20 09:46:43;;;;;;;16.55;13.00;;;;;;;21.69;63.94;99880.28;5967120;23;20030;-81
2021/08/20 09:49:18;;;;;;;17.15;12.02;;;;;;;21.71;63.62;99882.78;6038431;23;20027;-80
2021/08/20 09:51:51;;;;;;;16.77;13.50;;;;;;;21.71;63.24;99889.00;6038118;23;20023;-79
2021/08/20 09:54:23;;;;;;;15.85;12.13;;;;;;;21.67;62.99;99887.63;6037910;23;20023;-80
2021/08/20 09:57:00;;;;;;;14.95;11.63;;;;;;;21.65;63.54;99892.31;5959632;24;20031;-80
2021/08/20 09:59:30;;;;;;;12.73;11.30;;;;;;;21.59;63.58;99895.59;5957760;24;20084;-81
2021/08/20 10:02:03;;;;;;;14.98;11.35;;;;;;;21.54;63.79;99901.44;5958311;24;20032;-81
2021/08/20 10:04:34;;;;;;;15.02;11.43;;;;;;;21.48;64.11;99894.88;5957479;24;20129;-81
2021/08/20 10:07:02;;;;;;;14.00;11.10;;;;;;;21.47;64.20;99897.69;5957837;24;20478;-80
2021/08/20 10:09:30;;;;;;;14.35;10.13;;;;;;;21.46;64.49;99902.19;5958431;24;20405;-80
2021/08/20 10:12:00;;;;;;;13.23;9.73;;;;;;;21.46;64.59;99899.53;5957959;24;20024;-81
2021/08/20 10:14:29;;;;;;;13.15;9.70;;;;;;;21.47;64.70;99898.56;5957178;24;20038;-81
2021/08/20 10:16:56;;;;;;;10.35;7.95;;;;;;;21.50;64.31;99900.06;5957790;24;20107;-81
2021/08/20 10:19:37;;;;;;;10.13;7.72;;;;;;;21.49;65.04;99903.72;5957830;24;20111;-81
2021/08/20 10:22:05;;;;;;;10.68;8.25;;;;;;;21.58;65.64;99905.50;6012881;23;20106;-81
2021/08/20 10:24:32;;;;;;;9.20;7.60;;;;;;;21.69;65.47;99900.88;6037687;23;20023;-81
2021/08/20 10:27:19;;;;;;;10.75;8.02;;;;;;;21.73;65.13;99905.81;6039133;23;20346;-81
2021/08/20 10:29:49;;;;;;;11.48;7.68;;;;;;;21.85;64.60;99909.06;6040378;23;20023;-81
2021/08/20 10:32:21;;;;;;;10.70;8.02;;;;;;;21.90;63.90;99905.88;6040003;23;20027;-81
2021/08/20 10:34:48;;;;;;;7.90;6.82;;;;;;;21.96;64.02;99904.41;6039705;23;20029;-81
2021/08/20 10:37:35;;;;;;;8.35;6.63;;;;;;;21.92;63.45;99909.25;6040813;23;20396;-81
2021/08/20 10:40:22;;;;;;;7.05;6.07;;;;;;;21.94;63.48;99909.94;6040171;23;20027;-81
2021/08/20 10:42:50;;;;;;;8.98;6.03;;;;;;;21.96;63.09;99907.94;6039887;23;20055;-81
2021/08/20 10:45:17;;;;;;;7.53;6.10;;;;;;;21.96;63.64;99907.94;6039808;23;20466;-81
2021/08/20 10:47:45;;;;;;;7.50;5.95;;;;;;;21.96;64.53;99907.94;6040095;23;20035;-80
2021/08/20 10:50:18;;;;;;;9.13;6.78;;;;;;;21.97;64.10;99903.41;6043025;23;20023;-80
2021/08/20 10:52:50;;;;;;;12.65;7.53;;;;;;;22.01;63.96;99907.44;6044808;23;20023;-80
2021/08/20 10:55:25;;;;;;;9.18;6.93;;;;;;;22.02;63.31;99909.16;6044430;23;20023;-79
2021/08/20 10:57:57;;;;;;;9.68;7.20;;;;;;;22.03;63.38;99918.03;6045152;23;20081;-79
2021/08/20 11:00:29;;;;;;;10.93;7.53;;;;;;;22.01;63.63;99915.50;6045091;23;20097;-79
2021/08/20 11:02:58;;;;;;;10.63;8.13;;;;;;;22.00;63.86;99917.34;6045197;23;20438;-79
2021/08/20 11:05:41;;;;;;;11.57;8.70;;;;;;;21.99;63.99;99921.00;6044255;23;20023;-79
2021/08/20 11:08:27;;;;;;;15.30;11.50;;;;;;;21.99;63.61;99925.53;6045218;23;20328;-79
2021/08/20 11:10:56;;;;;;;18.42;14.15;;;;;;;22.03;63.41;99915.34;6044994;23;20042;-79
2021/08/20 11:13:23;;;;;;;20.25;14.70;;;;;;;22.05;63.78;99916.03;6070223;23;20065;-79
2021/08/20 11:15:53;;;;;;;20.10;14.82;;;;;;;22.09;64.72;99920.91;6043988;23;20101;-79
2021/08/20 11:18:51;;;;;;;17.95;13.90;;;;;;;22.19;65.03;99914.59;6045262;23;20406;-79
2021/08/20 11:21:42;;;;;;;21.70;14.77;;;;;;;22.38;65.01;99916.19;6017825;23;20031;-79
2021/08/20 11:24:11;;;;;;;18.65;14.77;;;;;;;22.61;64.65;99912.97;6044217;23;20494;-79
2021/08/20 11:26:37;;;;;;;20.35;15.50;;;;;;;22.73;63.83;99914.31;6044772;23;20074;-79
2021/08/20 11:29:05;;;;;;;19.98;15.13;;;;;;;22.85;63.59;99922.06;6044568;23;20109;-79